sensor_id;sensor_type;location;lat;lon;timestamp;P1;durP1;ratioP1;P2;durP2;ratioP2
18170;SDS011;9210;48.358;10.902;2023-06-22T00:01:08;11.40;;;5.75;;
18170;SDS011;9210;48.358;10.902;2023-06-22T00:03:38;14.30;;;5.93;;
18170;SDS011;9210;48.358;10.902;2023-06-22T00:06:07;13.52;;;6.22;;
18170;SDS011;9210;48.358;10.902;2023-06-22T00:08:35;14.32;;;5.93;;
18170;SDS011;9210;48.358;10.902;2023-06-22T00:11:04;14.27;;;6.32;;
18170;SDS011;9210;48.358;10.902;2023-06-22T00:13:32;15.88;;;6.03;;
18170;SDS011;9210;48.358;10.902;2023-06-22T00:16:01;15.40;;;6.32;;
18170;SDS011;9210;48.358;10.902;2023-06-22T00:18:29;14.57;;;6.22;;
18170;SDS011;9210;48.358;10.902;2023-06-22T00:21:00;12.30;;;5.20;;
18170;SDS011;9210;48.358;10.902;2023-06-22T00:23:28;14.95;;;5.47;;
18170;SDS011;9210;48.358;10.902;2023-06-22T00:26:01;10.27;;;5.20;;
18170;SDS011;9210;48.358;10.902;2023-06-22T00:28:30;10.98;;;5.18;;
18170;SDS011;9210;48.358;10.902;2023-06-22T00:31:00;11.25;;;5.18;;
18170;SDS011;9210;48.358;10.902;2023-06-22T00:33:29;9.50;;;4.88;;
18170;SDS011;9210;48.358;10.902;2023-06-22T00:35:58;11.98;;;5.57;;
18170;SDS011;9210;48.358;10.902;2023-06-22T00:38:28;9.82;;;4.72;;
18170;SDS011;9210;48.358;10.902;2023-06-22T00:40:57;10.13;;;5.00;;
18170;SDS011;9210;48.358;10.902;2023-06-22T00:43:26;10.35;;;4.95;;
18170;SDS011;9210;48.358;10.902;2023-06-22T00:45:55;12.95;;;5.35;;
18170;SDS011;9210;48.358;10.902;2023-06-22T00:48:24;17.45;;;5.80;;
18170;SDS011;9210;48.358;10.902;2023-06-22T00:50:53;13.40;;;5.63;;
18170;SDS011;9210;48.358;10.902;2023-06-22T00:53:22;13.20;;;5.32;;
18170;SDS011;9210;48.358;10.902;2023-06-22T00:55:54;13.82;;;5.72;;
18170;SDS011;9210;48.358;10.902;2023-06-22T00:58:26;13.52;;;5.75;;
18170;SDS011;9210;48.358;10.902;2023-06-22T01:00:57;13.18;;;5.45;;
18170;SDS011;9210;48.358;10.902;2023-06-22T01:03:27;14.20;;;4.85;;
18170;SDS011;9210;48.358;10.902;2023-06-22T01:05:56;15.85;;;6.03;;
18170;SDS011;9210;48.358;10.902;2023-06-22T01:08:29;12.73;;;5.82;;
18170;SDS011;9210;48.358;10.902;2023-06-22T01:11:01;12.60;;;6.38;;
18170;SDS011;9210;48.358;10.902;2023-06-22T01:13:35;12.40;;;6.35;;
18170;SDS011;9210;48.358;10.902;2023-06-22T01:16:07;15.43;;;6.35;;
18170;SDS011;9210;48.358;10.902;2023-06-22T01:18:41;16.30;;;6.45;;
18170;SDS011;9210;48.358;10.902;2023-06-22T01:21:12;13.00;;;5.78;;
18170;SDS011;9210;48.358;10.902;2023-06-22T01:23:49;13.60;;;6.50;;
18170;SDS011;9210;48.358;10.902;2023-06-22T01:26:20;11.95;;;5.75;;
18170;SDS011;9210;48.358;10.902;2023-06-22T01:28:53;10.57;;;5.95;;
18170;SDS011;9210;48.358;10.902;2023-06-22T01:31:24;15.68;;;6.25;;
18170;SDS011;9210;48.358;10.902;2023-06-22T01:33:53;12.18;;;6.25;;
18170;SDS011;9210;48.358;10.902;2023-06-22T01:36:23;14.15;;;6.15;;
18170;SDS011;9210;48.358;10.902;2023-06-22T01:38:53;14.05;;;5.95;;
18170;SDS011;9210;48.358;10.902;2023-06-22T01:41:24;12.63;;;5.97;;
18170;SDS011;9210;48.358;10.902;2023-06-22T01:43:54;14.75;;;6.63;;
18170;SDS011;9210;48.358;10.902;2023-06-22T01:46:23;14.82;;;6.80;;
18170;SDS011;9210;48.358;10.902;2023-06-22T01:48:52;13.07;;;5.65;;
18170;SDS011;9210;48.358;10.902;2023-06-22T01:51:21;10.38;;;6.10;;
18170;SDS011;9210;48.358;10.902;2023-06-22T01:53:50;13.93;;;6.22;;
18170;SDS011;9210;48.358;10.902;2023-06-22T01:56:19;16.35;;;6.82;;
18170;SDS011;9210;48.358;10.902;2023-06-22T01:58:50;14.02;;;6.78;;
18170;SDS011;9210;48.358;10.902;2023-06-22T02:01:24;13.43;;;6.13;;
18170;SDS011;9210;48.358;10.902;2023-06-22T02:03:56;16.33;;;6.60;;
18170;SDS011;9210;48.358;10.902;2023-06-22T02:06:27;13.60;;;5.75;;
18170;SDS011;9210;48.358;10.902;2023-06-22T02:09:02;15.02;;;5.90;;
18170;SDS011;9210;48.358;10.902;2023-06-22T02:11:30;15.93;;;6.35;;
18170;SDS011;9210;48.358;10.902;2023-06-22T02:17:02;16.75;;;6.55;;
18170;SDS011;9210;48.358;10.902;2023-06-22T02:19:31;14.15;;;6.05;;
18170;SDS011;9210;48.358;10.902;2023-06-22T02:22:00;15.02;;;5.93;;
18170;SDS011;9210;48.358;10.902;2023-06-22T02:24:29;14.05;;;6.07;;
18170;SDS011;9210;48.358;10.902;2023-06-22T02:27:00;14.98;;;6.40;;
18170;SDS011;9210;48.358;10.902;2023-06-22T02:29:31;15.68;;;5.82;;
18170;SDS011;9210;48.358;10.902;2023-06-22T02:32:06;16.00;;;5.60;;
18170;SDS011;9210;48.358;10.902;2023-06-22T02:34:35;13.13;;;6.05;;
18170;SDS011;9210;48.358;10.902;2023-06-22T02:40:56;17.02;;;6.35;;
18170;SDS011;9210;48.358;10.902;2023-06-22T02:43:30;12.43;;;5.70;;
18170;SDS011;9210;48.358;10.902;2023-06-22T02:46:02;13.68;;;6.32;;
18170;SDS011;9210;48.358;10.902;2023-06-22T02:48:33;13.75;;;6.13;;
18170;SDS011;9210;48.358;10.902;2023-06-22T02:51:03;15.38;;;6.43;;
18170;SDS011;9210;48.358;10.902;2023-06-22T02:53:33;13.77;;;6.32;;
18170;SDS011;9210;48.358;10.902;2023-06-22T02:56:02;12.55;;;6.25;;
18170;SDS011;9210;48.358;10.902;2023-06-22T02:58:45;12.77;;;6.85;;
18170;SDS011;9210;48.358;10.902;2023-06-22T03:01:14;13.68;;;6.60;;
18170;SDS011;9210;48.358;10.902;2023-06-22T03:03:47;10.63;;;6.20;;
18170;SDS011;9210;48.358;10.902;2023-06-22T03:06:19;20.05;;;7.45;;
18170;SDS011;9210;48.358;10.902;2023-06-22T03:08:50;20.05;;;7.43;;
18170;SDS011;9210;48.358;10.902;2023-06-22T03:11:21;14.07;;;6.65;;
18170;SDS011;9210;48.358;10.902;2023-06-22T03:13:50;12.98;;;6.43;;
18170;SDS011;9210;48.358;10.902;2023-06-22T03:16:19;16.40;;;6.45;;
18170;SDS011;9210;48.358;10.902;2023-06-22T03:18:49;13.73;;;6.93;;
18170;SDS011;9210;48.358;10.902;2023-06-22T03:21:18;11.38;;;6.40;;
18170;SDS011;9210;48.358;10.902;2023-06-22T03:23:48;16.05;;;6.60;;
18170;SDS011;9210;48.358;10.902;2023-06-22T03:26:16;13.00;;;6.53;;
18170;SDS011;9210;48.358;10.902;2023-06-22T03:28:45;17.80;;;7.20;;
18170;SDS011;9210;48.358;10.902;2023-06-22T03:31:14;15.68;;;6.88;;
18170;SDS011;9210;48.358;10.902;2023-06-22T03:33:43;20.35;;;7.68;;
18170;SDS011;9210;48.358;10.902;2023-06-22T03:36:14;15.15;;;6.88;;
18170;SDS011;9210;48.358;10.902;2023-06-22T03:38:46;14.20;;;6.78;;
18170;SDS011;9210;48.358;10.902;2023-06-22T03:41:15;11.48;;;6.53;;
18170;SDS011;9210;48.358;10.902;2023-06-22T03:43:44;17.40;;;7.15;;
18170;SDS011;9210;48.358;10.902;2023-06-22T03:46:14;13.48;;;6.32;;
18170;SDS011;9210;48.358;10.902;2023-06-22T03:48:43;12.07;;;6.82;;
18170;SDS011;9210;48.358;10.902;2023-06-22T03:51:11;13.65;;;7.13;;
18170;SDS011;9210;48.358;10.902;2023-06-22T03:53:41;16.67;;;7.68;;
18170;SDS011;9210;48.358;10.902;2023-06-22T03:56:10;18.50;;;7.20;;
18170;SDS011;9210;48.358;10.902;2023-06-22T03:58:39;12.98;;;6.97;;
18170;SDS011;9210;48.358;10.902;2023-06-22T04:01:09;13.63;;;6.60;;
18170;SDS011;9210;48.358;10.902;2023-06-22T04:03:38;15.05;;;6.40;;
18170;SDS011;9210;48.358;10.902;2023-06-22T04:06:07;16.05;;;6.32;;
18170;SDS011;9210;48.358;10.902;2023-06-22T04:08:36;18.58;;;7.28;;
18170;SDS011;9210;48.358;10.902;2023-06-22T04:11:06;15.70;;;7.13;;
18170;SDS011;9210;48.358;10.902;2023-06-22T04:13:35;14.63;;;7.13;;
18170;SDS011;9210;48.358;10.902;2023-06-22T04:16:04;18.02;;;7.80;;
18170;SDS011;9210;48.358;10.902;2023-06-22T04:18:32;16.30;;;7.20;;
18170;SDS011;9210;48.358;10.902;2023-06-22T04:21:02;14.70;;;6.97;;
18170;SDS011;9210;48.358;10.902;2023-06-22T04:23:32;14.10;;;6.85;;
18170;SDS011;9210;48.358;10.902;2023-06-22T04:51:32;15.10;;;6.95;;
18170;SDS011;9210;48.358;10.902;2023-06-22T05:40:39;17.05;;;6.10;;
18170;SDS011;9210;48.358;10.902;2023-06-22T05:45:44;13.48;;;6.00;;
18170;SDS011;9210;48.358;10.902;2023-06-22T05:48:13;13.57;;;6.80;;
18170;SDS011;9210;48.358;10.902;2023-06-22T05:50:42;10.00;;;6.00;;
18170;SDS011;9210;48.358;10.902;2023-06-22T05:56:09;14.63;;;7.22;;
18170;SDS011;9210;48.358;10.902;2023-06-22T05:58:40;13.48;;;6.55;;
18170;SDS011;9210;48.358;10.902;2023-06-22T06:01:11;14.25;;;7.40;;
18170;SDS011;9210;48.358;10.902;2023-06-22T06:03:42;14.57;;;6.43;;
18170;SDS011;9210;48.358;10.902;2023-06-22T06:06:10;12.60;;;6.70;;
18170;SDS011;9210;48.358;10.902;2023-06-22T06:08:40;14.90;;;6.82;;
18170;SDS011;9210;48.358;10.902;2023-06-22T06:11:14;14.82;;;6.90;;
18170;SDS011;9210;48.358;10.902;2023-06-22T06:13:47;13.70;;;7.05;;
18170;SDS011;9210;48.358;10.902;2023-06-22T06:16:18;15.10;;;7.63;;
18170;SDS011;9210;48.358;10.902;2023-06-22T06:18:47;17.65;;;6.90;;
18170;SDS011;9210;48.358;10.902;2023-06-22T06:33:11;13.80;;;7.65;;
18170;SDS011;9210;48.358;10.902;2023-06-22T06:38:37;16.05;;;8.13;;
18170;SDS011;9210;48.358;10.902;2023-06-22T06:41:09;16.15;;;7.15;;
18170;SDS011;9210;48.358;10.902;2023-06-22T06:43:37;14.02;;;6.90;;
18170;SDS011;9210;48.358;10.902;2023-06-22T06:49:07;12.68;;;6.07;;
18170;SDS011;9210;48.358;10.902;2023-06-22T06:51:36;13.82;;;6.65;;
18170;SDS011;9210;48.358;10.902;2023-06-22T06:54:04;13.85;;;5.65;;
18170;SDS011;9210;48.358;10.902;2023-06-22T07:05:13;12.95;;;5.63;;
18170;SDS011;9210;48.358;10.902;2023-06-22T07:07:42;17.02;;;5.43;;
18170;SDS011;9210;48.358;10.902;2023-06-22T07:10:12;11.55;;;5.28;;
18170;SDS011;9210;48.358;10.902;2023-06-22T07:12:42;20.75;;;6.78;;
18170;SDS011;9210;48.358;10.902;2023-06-22T07:15:11;14.55;;;5.75;;
18170;SDS011;9210;48.358;10.902;2023-06-22T07:17:40;45.33;;;8.45;;
18170;SDS011;9210;48.358;10.902;2023-06-22T07:20:09;31.95;;;7.38;;
18170;SDS011;9210;48.358;10.902;2023-06-22T07:22:41;19.83;;;6.60;;
18170;SDS011;9210;48.358;10.902;2023-06-22T07:25:09;14.50;;;5.85;;
18170;SDS011;9210;48.358;10.902;2023-06-22T07:27:43;15.68;;;6.00;;
18170;SDS011;9210;48.358;10.902;2023-06-22T07:30:14;19.10;;;6.25;;
18170;SDS011;9210;48.358;10.902;2023-06-22T07:32:43;13.73;;;5.53;;
18170;SDS011;9210;48.358;10.902;2023-06-22T07:35:13;15.18;;;5.82;;
18170;SDS011;9210;48.358;10.902;2023-06-22T07:37:45;18.40;;;6.28;;
18170;SDS011;9210;48.358;10.902;2023-06-22T07:43:09;14.10;;;5.93;;
18170;SDS011;9210;48.358;10.902;2023-06-22T07:45:37;14.73;;;6.60;;
18170;SDS011;9210;48.358;10.902;2023-06-22T07:48:07;20.08;;;6.45;;
18170;SDS011;9210;48.358;10.902;2023-06-22T07:50:36;15.75;;;6.32;;
18170;SDS011;9210;48.358;10.902;2023-06-22T07:53:06;16.65;;;6.15;;
18170;SDS011;9210;48.358;10.902;2023-06-22T07:55:35;21.00;;;6.10;;
18170;SDS011;9210;48.358;10.902;2023-06-22T07:58:03;25.65;;;6.70;;
18170;SDS011;9210;48.358;10.902;2023-06-22T08:00:33;17.05;;;5.95;;
18170;SDS011;9210;48.358;10.902;2023-06-22T08:03:02;22.48;;;6.30;;
18170;SDS011;9210;48.358;10.902;2023-06-22T08:05:31;20.27;;;6.00;;
18170;SDS011;9210;48.358;10.902;2023-06-22T08:08:02;16.48;;;5.97;;
18170;SDS011;9210;48.358;10.902;2023-06-22T08:10:32;13.18;;;5.53;;
18170;SDS011;9210;48.358;10.902;2023-06-22T08:13:01;19.30;;;6.07;;
18170;SDS011;9210;48.358;10.902;2023-06-22T08:15:30;15.55;;;6.22;;
18170;SDS011;9210;48.358;10.902;2023-06-22T08:17:59;23.13;;;6.18;;
18170;SDS011;9210;48.358;10.902;2023-06-22T08:20:28;16.63;;;5.90;;
18170;SDS011;9210;48.358;10.902;2023-06-22T08:22:57;17.38;;;6.60;;
18170;SDS011;9210;48.358;10.902;2023-06-22T08:25:33;19.92;;;6.70;;
18170;SDS011;9210;48.358;10.902;2023-06-22T08:28:04;15.00;;;6.18;;
18170;SDS011;9210;48.358;10.902;2023-06-22T08:30:33;17.45;;;6.05;;
18170;SDS011;9210;48.358;10.902;2023-06-22T08:33:02;20.48;;;5.53;;
18170;SDS011;9210;48.358;10.902;2023-06-22T08:35:30;22.45;;;6.82;;
18170;SDS011;9210;48.358;10.902;2023-06-22T08:37:59;12.40;;;5.63;;
18170;SDS011;9210;48.358;10.902;2023-06-22T08:40:29;17.15;;;6.28;;
18170;SDS011;9210;48.358;10.902;2023-06-22T08:42:59;14.80;;;5.57;;
18170;SDS011;9210;48.358;10.902;2023-06-22T08:45:30;17.42;;;5.68;;
18170;SDS011;9210;48.358;10.902;2023-06-22T08:48:00;17.63;;;5.88;;
18170;SDS011;9210;48.358;10.902;2023-06-22T08:50:28;22.15;;;6.40;;
18170;SDS011;9210;48.358;10.902;2023-06-22T08:52:57;20.70;;;5.70;;
18170;SDS011;9210;48.358;10.902;2023-06-22T08:55:25;14.95;;;5.50;;
18170;SDS011;9210;48.358;10.902;2023-06-22T08:57:54;19.58;;;6.10;;
18170;SDS011;9210;48.358;10.902;2023-06-22T09:00:27;13.60;;;6.45;;
18170;SDS011;9210;48.358;10.902;2023-06-22T09:02:59;20.52;;;6.22;;
18170;SDS011;9210;48.358;10.902;2023-06-22T09:05:29;16.10;;;6.20;;
18170;SDS011;9210;48.358;10.902;2023-06-22T09:07:58;16.23;;;5.55;;
18170;SDS011;9210;48.358;10.902;2023-06-22T09:10:27;23.48;;;6.65;;
18170;SDS011;9210;48.358;10.902;2023-06-22T09:12:57;15.57;;;6.07;;
18170;SDS011;9210;48.358;10.902;2023-06-22T09:15:27;12.07;;;6.25;;
18170;SDS011;9210;48.358;10.902;2023-06-22T09:17:56;14.20;;;5.70;;
18170;SDS011;9210;48.358;10.902;2023-06-22T09:20:25;19.63;;;6.80;;
18170;SDS011;9210;48.358;10.902;2023-06-22T09:22:56;19.23;;;5.85;;
18170;SDS011;9210;48.358;10.902;2023-06-22T09:25:26;13.57;;;5.38;;
18170;SDS011;9210;48.358;10.902;2023-06-22T09:27:56;17.98;;;5.70;;
18170;SDS011;9210;48.358;10.902;2023-06-22T09:30:35;17.77;;;6.43;;
18170;SDS011;9210;48.358;10.902;2023-06-22T09:33:06;16.20;;;6.60;;
18170;SDS011;9210;48.358;10.902;2023-06-22T09:35:35;18.80;;;6.15;;
18170;SDS011;9210;48.358;10.902;2023-06-22T09:38:03;19.58;;;6.47;;
18170;SDS011;9210;48.358;10.902;2023-06-22T09:40:32;17.88;;;5.82;;
18170;SDS011;9210;48.358;10.902;2023-06-22T09:43:06;16.88;;;6.35;;
18170;SDS011;9210;48.358;10.902;2023-06-22T09:45:36;18.23;;;5.95;;
18170;SDS011;9210;48.358;10.902;2023-06-22T09:48:08;13.80;;;6.45;;
18170;SDS011;9210;48.358;10.902;2023-06-22T09:50:39;20.95;;;6.82;;
18170;SDS011;9210;48.358;10.902;2023-06-22T09:53:08;23.75;;;6.60;;
18170;SDS011;9210;48.358;10.902;2023-06-22T09:55:37;13.70;;;5.90;;
18170;SDS011;9210;48.358;10.902;2023-06-22T09:58:07;20.98;;;6.45;;
18170;SDS011;9210;48.358;10.902;2023-06-22T10:00:40;17.65;;;6.60;;
18170;SDS011;9210;48.358;10.902;2023-06-22T10:03:09;14.65;;;5.68;;
18170;SDS011;9210;48.358;10.902;2023-06-22T10:05:37;17.40;;;6.32;;
18170;SDS011;9210;48.358;10.902;2023-06-22T10:08:06;19.00;;;6.10;;
18170;SDS011;9210;48.358;10.902;2023-06-22T10:10:36;15.32;;;5.65;;
18170;SDS011;9210;48.358;10.902;2023-06-22T10:13:07;16.85;;;5.95;;
18170;SDS011;9210;48.358;10.902;2023-06-22T10:15:38;14.88;;;6.15;;
18170;SDS011;9210;48.358;10.902;2023-06-22T10:18:08;15.48;;;6.07;;
18170;SDS011;9210;48.358;10.902;2023-06-22T10:20:37;17.25;;;6.20;;
18170;SDS011;9210;48.358;10.902;2023-06-22T10:23:05;15.27;;;6.03;;
18170;SDS011;9210;48.358;10.902;2023-06-22T10:25:34;14.88;;;5.88;;
18170;SDS011;9210;48.358;10.902;2023-06-22T10:28:04;15.70;;;5.93;;
18170;SDS011;9210;48.358;10.902;2023-06-22T10:30:34;21.25;;;6.32;;
18170;SDS011;9210;48.358;10.902;2023-06-22T10:33:12;14.10;;;5.57;;
18170;SDS011;9210;48.358;10.902;2023-06-22T10:35:42;16.48;;;6.07;;
18170;SDS011;9210;48.358;10.902;2023-06-22T10:38:11;20.73;;;6.40;;
18170;SDS011;9210;48.358;10.902;2023-06-22T10:40:40;15.07;;;5.60;;
18170;SDS011;9210;48.358;10.902;2023-06-22T10:43:09;15.23;;;5.78;;
18170;SDS011;9210;48.358;10.902;2023-06-22T10:45:39;17.25;;;6.35;;
18170;SDS011;9210;48.358;10.902;2023-06-22T10:48:07;18.52;;;6.32;;
18170;SDS011;9210;48.358;10.902;2023-06-22T10:50:37;16.00;;;6.03;;
18170;SDS011;9210;48.358;10.902;2023-06-22T10:53:06;16.27;;;5.85;;
18170;SDS011;9210;48.358;10.902;2023-06-22T10:55:35;22.13;;;6.43;;
18170;SDS011;9210;48.358;10.902;2023-06-22T10:58:22;16.23;;;6.47;;
18170;SDS011;9210;48.358;10.902;2023-06-22T11:00:52;15.60;;;6.55;;
18170;SDS011;9210;48.358;10.902;2023-06-22T11:03:21;13.57;;;5.68;;
18170;SDS011;9210;48.358;10.902;2023-06-22T11:05:51;16.73;;;5.72;;
18170;SDS011;9210;48.358;10.902;2023-06-22T11:08:22;16.10;;;5.78;;
18170;SDS011;9210;48.358;10.902;2023-06-22T11:10:50;11.77;;;5.50;;
18170;SDS011;9210;48.358;10.902;2023-06-22T11:13:19;15.98;;;5.90;;
18170;SDS011;9210;48.358;10.902;2023-06-22T11:15:49;16.67;;;5.93;;
18170;SDS011;9210;48.358;10.902;2023-06-22T11:18:18;20.75;;;5.95;;
18170;SDS011;9210;48.358;10.902;2023-06-22T11:20:51;17.85;;;5.97;;
18170;SDS011;9210;48.358;10.902;2023-06-22T11:23:19;19.17;;;6.88;;
18170;SDS011;9210;48.358;10.902;2023-06-22T11:25:48;15.32;;;6.05;;
18170;SDS011;9210;48.358;10.902;2023-06-22T11:28:17;12.15;;;5.72;;
18170;SDS011;9210;48.358;10.902;2023-06-22T11:30:45;12.85;;;5.22;;
18170;SDS011;9210;48.358;10.902;2023-06-22T11:33:17;17.35;;;5.35;;
18170;SDS011;9210;48.358;10.902;2023-06-22T11:35:46;15.25;;;5.50;;
18170;SDS011;9210;48.358;10.902;2023-06-22T11:38:16;14.68;;;5.47;;
18170;SDS011;9210;48.358;10.902;2023-06-22T11:40:44;19.15;;;6.70;;
18170;SDS011;9210;48.358;10.902;2023-06-22T11:43:13;14.63;;;6.47;;
18170;SDS011;9210;48.358;10.902;2023-06-22T11:45:41;15.85;;;6.03;;
18170;SDS011;9210;48.358;10.902;2023-06-22T11:48:13;14.00;;;5.35;;
18170;SDS011;9210;48.358;10.902;2023-06-22T11:50:44;18.38;;;6.15;;
18170;SDS011;9210;48.358;10.902;2023-06-22T11:53:12;12.00;;;5.07;;
18170;SDS011;9210;48.358;10.902;2023-06-22T11:55:44;18.50;;;6.32;;
18170;SDS011;9210;48.358;10.902;2023-06-22T11:58:13;18.05;;;6.20;;
18170;SDS011;9210;48.358;10.902;2023-06-22T12:00:42;13.07;;;5.40;;
18170;SDS011;9210;48.358;10.902;2023-06-22T12:03:17;18.67;;;6.07;;
18170;SDS011;9210;48.358;10.902;2023-06-22T12:05:49;16.52;;;5.90;;
18170;SDS011;9210;48.358;10.902;2023-06-22T12:08:17;19.63;;;6.25;;
18170;SDS011;9210;48.358;10.902;2023-06-22T12:10:48;17.92;;;6.10;;
18170;SDS011;9210;48.358;10.902;2023-06-22T12:13:20;20.45;;;6.28;;
18170;SDS011;9210;48.358;10.902;2023-06-22T12:15:49;16.00;;;5.88;;
18170;SDS011;9210;48.358;10.902;2023-06-22T12:18:18;20.63;;;5.90;;
18170;SDS011;9210;48.358;10.902;2023-06-22T12:20:48;17.25;;;6.03;;
18170;SDS011;9210;48.358;10.902;2023-06-22T12:23:16;16.98;;;5.85;;
18170;SDS011;9210;48.358;10.902;2023-06-22T12:25:47;13.15;;;5.65;;
18170;SDS011;9210;48.358;10.902;2023-06-22T12:28:15;13.13;;;5.47;;
18170;SDS011;9210;48.358;10.902;2023-06-22T12:30:44;14.63;;;5.78;;
18170;SDS011;9210;48.358;10.902;2023-06-22T12:33:13;12.55;;;5.50;;
18170;SDS011;9210;48.358;10.902;2023-06-22T12:35:41;18.08;;;5.97;;
18170;SDS011;9210;48.358;10.902;2023-06-22T12:38:11;20.08;;;5.90;;
18170;SDS011;9210;48.358;10.902;2023-06-22T12:40:40;18.13;;;6.30;;
18170;SDS011;9210;48.358;10.902;2023-06-22T12:43:10;20.98;;;6.32;;
18170;SDS011;9210;48.358;10.902;2023-06-22T12:45:38;20.35;;;6.82;;
18170;SDS011;9210;48.358;10.902;2023-06-22T12:48:13;13.20;;;6.05;;
18170;SDS011;9210;48.358;10.902;2023-06-22T12:50:41;16.55;;;6.15;;
18170;SDS011;9210;48.358;10.902;2023-06-22T12:53:09;18.17;;;5.97;;
18170;SDS011;9210;48.358;10.902;2023-06-22T12:55:38;16.08;;;5.95;;
18170;SDS011;9210;48.358;10.902;2023-06-22T12:58:06;15.43;;;6.20;;
18170;SDS011;9210;48.358;10.902;2023-06-22T13:00:37;18.55;;;6.30;;
18170;SDS011;9210;48.358;10.902;2023-06-22T13:03:06;15.93;;;5.95;;
18170;SDS011;9210;48.358;10.902;2023-06-22T13:05:35;15.32;;;5.32;;
18170;SDS011;9210;48.358;10.902;2023-06-22T13:08:04;13.55;;;5.22;;
18170;SDS011;9210;48.358;10.902;2023-06-22T13:10:38;17.92;;;5.80;;
18170;SDS011;9210;48.358;10.902;2023-06-22T13:13:06;20.70;;;5.75;;
18170;SDS011;9210;48.358;10.902;2023-06-22T13:15:38;18.55;;;6.13;;
18170;SDS011;9210;48.358;10.902;2023-06-22T13:18:06;19.42;;;5.93;;
18170;SDS011;9210;48.358;10.902;2023-06-22T13:20:35;18.10;;;5.97;;
18170;SDS011;9210;48.358;10.902;2023-06-22T13:23:03;19.52;;;6.00;;
18170;SDS011;9210;48.358;10.902;2023-06-22T13:25:32;11.75;;;5.30;;
18170;SDS011;9210;48.358;10.902;2023-06-22T13:28:02;15.13;;;5.85;;
18170;SDS011;9210;48.358;10.902;2023-06-22T13:30:33;14.27;;;5.72;;
18170;SDS011;9210;48.358;10.902;2023-06-22T13:33:03;14.68;;;5.63;;
18170;SDS011;9210;48.358;10.902;2023-06-22T13:35:31;18.55;;;5.93;;
18170;SDS011;9210;48.358;10.902;2023-06-22T13:38:01;18.88;;;5.80;;
18170;SDS011;9210;48.358;10.902;2023-06-22T13:40:29;16.63;;;6.20;;
18170;SDS011;9210;48.358;10.902;2023-06-22T13:43:02;24.35;;;6.68;;
18170;SDS011;9210;48.358;10.902;2023-06-22T13:45:31;20.45;;;5.82;;
18170;SDS011;9210;48.358;10.902;2023-06-22T13:47:59;19.38;;;6.03;;
18170;SDS011;9210;48.358;10.902;2023-06-22T13:50:29;16.60;;;5.47;;
18170;SDS011;9210;48.358;10.902;2023-06-22T13:52:59;16.25;;;5.85;;
18170;SDS011;9210;48.358;10.902;2023-06-22T13:55:27;17.65;;;5.55;;
18170;SDS011;9210;48.358;10.902;2023-06-22T13:57:57;22.33;;;6.43;;
18170;SDS011;9210;48.358;10.902;2023-06-22T14:00:25;23.42;;;6.03;;
18170;SDS011;9210;48.358;10.902;2023-06-22T14:02:55;16.85;;;5.90;;
18170;SDS011;9210;48.358;10.902;2023-06-22T14:05:24;15.10;;;5.50;;
18170;SDS011;9210;48.358;10.902;2023-06-22T14:07:53;20.02;;;5.60;;
18170;SDS011;9210;48.358;10.902;2023-06-22T14:10:22;13.70;;;5.43;;
18170;SDS011;9210;48.358;10.902;2023-06-22T14:12:51;11.20;;;4.70;;
18170;SDS011;9210;48.358;10.902;2023-06-22T14:15:22;13.60;;;5.15;;
18170;SDS011;9210;48.358;10.902;2023-06-22T14:17:51;13.32;;;4.72;;
18170;SDS011;9210;48.358;10.902;2023-06-22T14:20:21;16.08;;;4.82;;
18170;SDS011;9210;48.358;10.902;2023-06-22T14:22:50;19.75;;;5.20;;
18170;SDS011;9210;48.358;10.902;2023-06-22T14:25:20;18.65;;;5.30;;
18170;SDS011;9210;48.358;10.902;2023-06-22T14:27:48;16.33;;;5.05;;
18170;SDS011;9210;48.358;10.902;2023-06-22T14:30:17;19.80;;;5.18;;
18170;SDS011;9210;48.358;10.902;2023-06-22T14:32:48;18.40;;;5.68;;
18170;SDS011;9210;48.358;10.902;2023-06-22T14:35:17;20.23;;;5.70;;
18170;SDS011;9210;48.358;10.902;2023-06-22T14:37:47;16.95;;;5.22;;
18170;SDS011;9210;48.358;10.902;2023-06-22T14:40:20;20.38;;;5.38;;
18170;SDS011;9210;48.358;10.902;2023-06-22T14:42:52;19.60;;;5.43;;
18170;SDS011;9210;48.358;10.902;2023-06-22T14:45:22;17.23;;;4.43;;
18170;SDS011;9210;48.358;10.902;2023-06-22T14:47:52;14.95;;;4.90;;
18170;SDS011;9210;48.358;10.902;2023-06-22T14:50:21;18.65;;;5.25;;
18170;SDS011;9210;48.358;10.902;2023-06-22T14:52:49;17.15;;;4.50;;
18170;SDS011;9210;48.358;10.902;2023-06-22T14:55:18;15.65;;;4.70;;
18170;SDS011;9210;48.358;10.902;2023-06-22T14:57:48;19.00;;;5.05;;
18170;SDS011;9210;48.358;10.902;2023-06-22T15:00:17;16.90;;;4.57;;
18170;SDS011;9210;48.358;10.902;2023-06-22T15:02:52;16.88;;;4.97;;
18170;SDS011;9210;48.358;10.902;2023-06-22T15:05:22;20.08;;;4.97;;
18170;SDS011;9210;48.358;10.902;2023-06-22T15:07:51;16.40;;;4.22;;
18170;SDS011;9210;48.358;10.902;2023-06-22T15:10:21;18.38;;;5.15;;
18170;SDS011;9210;48.358;10.902;2023-06-22T15:12:53;20.30;;;5.65;;
18170;SDS011;9210;48.358;10.902;2023-06-22T15:15:23;18.65;;;5.38;;
18170;SDS011;9210;48.358;10.902;2023-06-22T15:17:51;23.13;;;5.82;;
18170;SDS011;9210;48.358;10.902;2023-06-22T15:20:21;22.33;;;5.20;;
18170;SDS011;9210;48.358;10.902;2023-06-22T15:22:49;18.27;;;4.72;;
18170;SDS011;9210;48.358;10.902;2023-06-22T15:25:20;14.98;;;5.10;;
18170;SDS011;9210;48.358;10.902;2023-06-22T15:30:45;17.90;;;4.90;;
18170;SDS011;9210;48.358;10.902;2023-06-22T15:33:14;19.23;;;5.45;;
18170;SDS011;9210;48.358;10.902;2023-06-22T15:35:43;16.38;;;5.10;;
18170;SDS011;9210;48.358;10.902;2023-06-22T15:38:12;16.88;;;4.68;;
18170;SDS011;9210;48.358;10.902;2023-06-22T15:40:40;17.95;;;5.15;;
18170;SDS011;9210;48.358;10.902;2023-06-22T15:43:09;16.83;;;4.82;;
18170;SDS011;9210;48.358;10.902;2023-06-22T15:45:39;15.07;;;4.97;;
18170;SDS011;9210;48.358;10.902;2023-06-22T15:48:09;17.40;;;4.70;;
18170;SDS011;9210;48.358;10.902;2023-06-22T15:50:38;17.58;;;5.50;;
18170;SDS011;9210;48.358;10.902;2023-06-22T15:53:08;19.83;;;4.78;;
18170;SDS011;9210;48.358;10.902;2023-06-22T15:55:36;20.13;;;5.00;;
18170;SDS011;9210;48.358;10.902;2023-06-22T15:58:04;21.02;;;6.20;;
18170;SDS011;9210;48.358;10.902;2023-06-22T16:00:33;16.65;;;5.38;;
18170;SDS011;9210;48.358;10.902;2023-06-22T16:03:02;18.85;;;5.88;;
18170;SDS011;9210;48.358;10.902;2023-06-22T16:05:32;16.77;;;5.45;;
18170;SDS011;9210;48.358;10.902;2023-06-22T16:08:00;15.45;;;5.90;;
18170;SDS011;9210;48.358;10.902;2023-06-22T16:10:29;18.48;;;6.00;;
18170;SDS011;9210;48.358;10.902;2023-06-22T16:12:58;23.10;;;6.95;;
18170;SDS011;9210;48.358;10.902;2023-06-22T16:15:26;17.90;;;6.55;;
18170;SDS011;9210;48.358;10.902;2023-06-22T16:17:56;18.23;;;7.07;;
18170;SDS011;9210;48.358;10.902;2023-06-22T16:20:24;17.65;;;6.53;;
18170;SDS011;9210;48.358;10.902;2023-06-22T16:22:55;20.10;;;7.38;;
18170;SDS011;9210;48.358;10.902;2023-06-22T16:25:23;18.77;;;7.40;;
18170;SDS011;9210;48.358;10.902;2023-06-22T16:27:52;18.77;;;7.15;;
18170;SDS011;9210;48.358;10.902;2023-06-22T16:30:21;16.42;;;6.72;;
18170;SDS011;9210;48.358;10.902;2023-06-22T16:32:50;20.48;;;7.25;;
18170;SDS011;9210;48.358;10.902;2023-06-22T16:35:22;18.17;;;7.05;;
18170;SDS011;9210;48.358;10.902;2023-06-22T16:37:52;16.63;;;7.65;;
18170;SDS011;9210;48.358;10.902;2023-06-22T16:40:23;19.10;;;7.60;;
18170;SDS011;9210;48.358;10.902;2023-06-22T16:42:51;14.88;;;7.32;;
18170;SDS011;9210;48.358;10.902;2023-06-22T16:45:25;24.35;;;7.78;;
18170;SDS011;9210;48.358;10.902;2023-06-22T16:47:53;20.92;;;7.93;;